sensor_id;sensor_type;location;lat;lon;timestamp;pressure;altitude;pressure_sealevel;temperature;humidity
62333;BME280;48624;49.812;8.562;2024-03-02T00:00:15;99418.81;;;4.40;97.66
62333;BME280;48624;49.812;8.562;2024-03-02T00:02:45;99418.06;;;4.38;98.04
62333;BME280;48624;49.812;8.562;2024-03-02T00:05:15;99408.53;;;4.37;98.26
62333;BME280;48624;49.812;8.562;2024-03-02T00:07:42;99417.00;;;4.26;99.61
62333;BME280;48624;49.812;8.562;2024-03-02T00:10:09;99414.84;;;4.19;100.00
62333;BME280;48624;49.812;8.562;2024-03-02T00:12:39;99413.28;;;4.30;99.67
62333;BME280;48624;49.812;8.562;2024-03-02T00:15:07;99405.84;;;4.08;100.00
62333;BME280;48624;49.812;8.562;2024-03-02T00:17:44;99397.81;;;3.95;100.00
62333;BME280;48624;49.812;8.562;2024-03-02T00:20:11;99408.03;;;4.00;100.00
62333;BME280;48624;49.812;8.562;2024-03-02T00:22:41;99396.63;;;4.01;100.00
62333;BME280;48624;49.812;8.562;2024-03-02T00:25:07;99401.38;;;3.94;100.00
62333;BME280;48624;49.812;8.562;2024-03-02T00:27:33;99392.44;;;3.98;100.00
62333;BME280;48624;49.812;8.562;2024-03-02T00:30:00;99396.38;;;3.75;100.00
62333;BME280;48624;49.812;8.562;2024-03-02T00:32:26;99395.00;;;3.68;100.00
62333;BME280;48624;49.812;8.562;2024-03-02T00:34:53;99389.25;;;3.77;100.00
62333;BME280;48624;49.812;8.562;2024-03-02T00:37:18;99393.41;;;3.65;100.00
62333;BME280;48624;49.812;8.562;2024-03-02T00:39:49;99397.38;;;3.72;100.00
62333;BME280;48624;49.812;8.562;2024-03-02T00:42:14;99389.75;;;3.84;100.00
62333;BME280;48624;49.812;8.562;2024-03-02T00:44:39;99397.34;;;3.88;100.00
62333;BME280;48624;49.812;8.562;2024-03-02T00:47:05;99396.59;;;3.86;100.00
62333;BME280;48624;49.812;8.562;2024-03-02T00:49:30;99394.22;;;3.82;100.00
62333;BME280;48624;49.812;8.562;2024-03-02T00:51:55;99399.38;;;3.83;100.00
62333;BME280;48624;49.812;8.562;2024-03-02T00:54:23;99402.56;;;3.88;100.00
62333;BME280;48624;49.812;8.562;2024-03-02T00:56:49;99401.97;;;3.83;100.00
62333;BME280;48624;49.812;8.562;2024-03-02T00:59:15;99400.56;;;3.94;100.00
62333;BME280;48624;49.812;8.562;2024-03-02T01:01:40;99413.66;;;3.78;100.00
62333;BME280;48624;49.812;8.562;2024-03-02T01:04:05;99406.91;;;3.41;100.00
62333;BME280;48624;49.812;8.562;2024-03-02T01:06:31;99417.38;;;3.09;100.00
62333;BME280;48624;49.812;8.562;2024-03-02T01:08:56;99421.34;;;3.16;100.00
62333;BME280;48624;49.812;8.562;2024-03-02T01:11:21;99417.38;;;3.25;100.00
62333;BME280;48624;49.812;8.562;2024-03-02T01:13:50;99420.00;;;3.25;100.00
62333;BME280;48624;49.812;8.562;2024-03-02T01:16:16;99423.81;;;3.19;100.00
62333;BME280;48624;49.812;8.562;2024-03-02T01:18:41;99420.34;;;3.19;100.00
62333;BME280;48624;49.812;8.562;2024-03-02T01:21:07;99420.88;;;3.26;100.00
62333;BME280;48624;49.812;8.562;2024-03-02T01:23:32;99412.66;;;3.16;100.00
62333;BME280;48624;49.812;8.562;2024-03-02T01:25:58;99420.44;;;3.17;100.00
62333;BME280;48624;49.812;8.562;2024-03-02T01:28:23;99412.56;;;3.17;100.00
62333;BME280;48624;49.812;8.562;2024-03-02T01:30:49;99419.41;;;3.20;100.00
62333;BME280;48624;49.812;8.562;2024-03-02T01:33:14;99413.34;;;3.19;100.00
62333;BME280;48624;49.812;8.562;2024-03-02T01:35:40;99409.19;;;3.15;100.00
62333;BME280;48624;49.812;8.562;2024-03-02T01:38:05;99410.03;;;3.16;100.00
62333;BME280;48624;49.812;8.562;2024-03-02T01:40:34;99408.59;;;3.10;100.00
62333;BME280;48624;49.812;8.562;2024-03-02T01:42:59;99393.47;;;2.99;100.00
62333;BME280;48624;49.812;8.562;2024-03-02T01:45:25;99406.63;;;2.98;100.00
62333;BME280;48624;49.812;8.562;2024-03-02T01:47:50;99402.41;;;2.95;100.00
62333;BME280;48624;49.812;8.562;2024-03-02T01:50:24;99397.72;;;2.84;100.00
62333;BME280;48624;49.812;8.562;2024-03-02T01:52:51;99383.06;;;2.82;100.00
62333;BME280;48624;49.812;8.562;2024-03-02T01:55:16;99386.00;;;2.75;100.00
62333;BME280;48624;49.812;8.562;2024-03-02T01:57:42;99386.13;;;2.90;100.00
62333;BME280;48624;49.812;8.562;2024-03-02T02:00:08;99379.84;;;2.92;100.00
62333;BME280;48624;49.812;8.562;2024-03-02T02:02:34;99382.13;;;2.83;100.00
62333;BME280;48624;49.812;8.562;2024-03-02T02:05:00;99382.34;;;2.96;100.00
62333;BME280;48624;49.812;8.562;2024-03-02T02:07:25;99367.31;;;2.99;100.00
62333;BME280;48624;49.812;8.562;2024-03-02T02:09:50;99362.91;;;3.00;100.00
62333;BME280;48624;49.812;8.562;2024-03-02T02:12:16;99363.66;;;3.02;100.00
62333;BME280;48624;49.812;8.562;2024-03-02T02:14:47;99368.91;;;3.02;100.00
62333;BME280;48624;49.812;8.562;2024-03-02T02:17:13;99371.38;;;3.05;100.00
62333;BME280;48624;49.812;8.562;2024-03-02T02:19:40;99363.09;;;2.97;100.00
62333;BME280;48624;49.812;8.562;2024-03-02T02:22:06;99354.38;;;2.96;100.00
62333;BME280;48624;49.812;8.562;2024-03-02T02:24:31;99366.47;;;2.99;100.00
62333;BME280;48624;49.812;8.562;2024-03-02T02:26:56;99358.94;;;2.92;100.00
62333;BME280;48624;49.812;8.562;2024-03-02T02:29:21;99358.69;;;2.97;100.00
62333;BME280;48624;49.812;8.562;2024-03-02T02:31:47;99359.38;;;3.01;100.00
62333;BME280;48624;49.812;8.562;2024-03-02T02:34:14;99361.16;;;3.00;100.00
62333;BME280;48624;49.812;8.562;2024-03-02T02:36:39;99356.13;;;2.80;100.00
62333;BME280;48624;49.812;8.562;2024-03-02T02:39:07;99360.03;;;2.88;100.00
62333;BME280;48624;49.812;8.562;2024-03-02T02:41:34;99352.00;;;2.42;100.00
62333;BME280;48624;49.812;8.562;2024-03-02T02:43:59;99353.44;;;2.47;100.00
62333;BME280;48624;49.812;8.562;2024-03-02T02:46:24;99355.72;;;2.38;100.00
62333;BME280;48624;49.812;8.562;2024-03-02T02:48:49;99351.94;;;2.43;100.00
62333;BME280;48624;49.812;8.562;2024-03-02T02:51:16;99341.97;;;1.99;100.00
62333;BME280;48624;49.812;8.562;2024-03-02T02:53:42;99340.88;;;2.20;100.00
62333;BME280;48624;49.812;8.562;2024-03-02T02:56:07;99332.81;;;2.07;100.00
62333;BME280;48624;49.812;8.562;2024-03-02T02:58:32;99338.25;;;2.20;100.00
62333;BME280;48624;49.812;8.562;2024-03-02T03:00:57;99330.19;;;2.25;100.00
62333;BME280;48624;49.812;8.562;2024-03-02T03:03:23;99332.72;;;2.27;100.00
62333;BME280;48624;49.812;8.562;2024-03-02T03:05:48;99334.25;;;2.31;100.00
62333;BME280;48624;49.812;8.562;2024-03-02T03:08:13;99333.47;;;2.29;100.00
62333;BME280;48624;49.812;8.562;2024-03-02T03:10:41;99335.25;;;2.28;100.00
62333;BME280;48624;49.812;8.562;2024-03-02T03:13:06;99337.94;;;2.27;100.00
62333;BME280;48624;49.812;8.562;2024-03-02T03:15:34;99335.94;;;2.32;100.00
62333;BME280;48624;49.812;8.562;2024-03-02T03:17:59;99333.25;;;2.33;100.00
62333;BME280;48624;49.812;8.562;2024-03-02T03:20:25;99329.66;;;2.01;100.00
62333;BME280;48624;49.812;8.562;2024-03-02T03:22:50;99332.81;;;2.07;100.00
62333;BME280;48624;49.812;8.562;2024-03-02T03:25:15;99327.97;;;2.17;100.00
62333;BME280;48624;49.812;8.562;2024-03-02T03:27:40;99329.91;;;1.96;100.00
62333;BME280;48624;49.812;8.562;2024-03-02T03:30:07;99323.28;;;2.06;100.00
62333;BME280;48624;49.812;8.562;2024-03-02T03:32:32;99322.81;;;2.16;100.00
62333;BME280;48624;49.812;8.562;2024-03-02T03:34:57;99315.31;;;2.10;100.00
62333;BME280;48624;49.812;8.562;2024-03-02T03:37:23;99315.06;;;2.14;100.00
62333;BME280;48624;49.812;8.562;2024-03-02T03:39:49;99316.06;;;2.12;100.00
62333;BME280;48624;49.812;8.562;2024-03-02T03:42:14;99321.06;;;2.16;100.00
62333;BME280;48624;49.812;8.562;2024-03-02T03:44:39;99323.34;;;2.22;100.00
62333;BME280;48624;49.812;8.562;2024-03-02T03:47:06;99324.13;;;2.07;100.00
62333;BME280;48624;49.812;8.562;2024-03-02T03:49:32;99320.72;;;2.22;100.00
62333;BME280;48624;49.812;8.562;2024-03-02T03:51:57;99328.66;;;2.21;100.00
62333;BME280;48624;49.812;8.562;2024-03-02T03:54:22;99332.78;;;2.25;100.00
62333;BME280;48624;49.812;8.562;2024-03-02T03:56:47;99335.09;;;2.31;100.00
62333;BME280;48624;49.812;8.562;2024-03-02T03:59:13;99338.63;;;1.60;100.00
62333;BME280;48624;49.812;8.562;2024-03-02T04:01:38;99342.25;;;1.57;100.00
62333;BME280;48624;49.812;8.562;2024-03-02T04:04:03;99336.34;;;1.54;100.00
62333;BME280;48624;49.812;8.562;2024-03-02T04:06:29;99332.53;;;1.42;100.00
62333;BME280;48624;49.812;8.562;2024-03-02T04:08:54;99337.06;;;1.38;100.00
62333;BME280;48624;49.812;8.562;2024-03-02T04:11:19;99330.56;;;1.64;100.00
62333;BME280;48624;49.812;8.562;2024-03-02T04:13:45;99327.34;;;1.59;100.00
62333;BME280;48624;49.812;8.562;2024-03-02T04:16:10;99326.19;;;1.65;100.00
62333;BME280;48624;49.812;8.562;2024-03-02T04:18:35;99334.19;;;1.62;100.00
62333;BME280;48624;49.812;8.562;2024-03-02T04:21:01;99337.09;;;1.56;100.00
62333;BME280;48624;49.812;8.562;2024-03-02T04:23:26;99330.22;;;1.72;100.00
62333;BME280;48624;49.812;8.562;2024-03-02T04:25:51;99331.66;;;1.78;100.00
62333;BME280;48624;49.812;8.562;2024-03-02T04:28:17;99333.66;;;1.90;100.00
62333;BME280;48624;49.812;8.562;2024-03-02T04:30:42;99327.50;;;1.91;100.00
62333;BME280;48624;49.812;8.562;2024-03-02T04:33:07;99329.28;;;1.91;100.00
62333;BME280;48624;49.812;8.562;2024-03-02T04:35:38;99331.91;;;1.91;100.00
62333;BME280;48624;49.812;8.562;2024-03-02T04:38:03;99329.81;;;1.98;100.00
62333;BME280;48624;49.812;8.562;2024-03-02T04:40:28;99326.69;;;1.91;100.00
62333;BME280;48624;49.812;8.562;2024-03-02T04:42:54;99332.91;;;1.88;100.00
62333;BME280;48624;49.812;8.562;2024-03-02T04:45:19;99326.97;;;1.85;100.00
62333;BME280;48624;49.812;8.562;2024-03-02T04:47:44;99339.13;;;1.86;100.00
62333;BME280;48624;49.812;8.562;2024-03-02T04:50:10;99333.19;;;1.82;100.00
62333;BME280;48624;49.812;8.562;2024-03-02T04:52:35;99334.19;;;1.79;100.00
62333;BME280;48624;49.812;8.562;2024-03-02T04:55:01;99329.72;;;1.46;100.00
62333;BME280;48624;49.812;8.562;2024-03-02T04:57:45;99336.72;;;1.63;100.00
62333;BME280;48624;49.812;8.562;2024-03-02T05:00:11;99339.06;;;1.50;100.00
62333;BME280;48624;49.812;8.562;2024-03-02T05:02:38;99343.34;;;1.71;100.00
62333;BME280;48624;49.812;8.562;2024-03-02T05:05:03;99347.78;;;1.69;100.00
62333;BME280;48624;49.812;8.562;2024-03-02T05:07:28;99355.25;;;1.76;100.00
62333;BME280;48624;49.812;8.562;2024-03-02T05:09:54;99349.63;;;1.84;100.00
62333;BME280;48624;49.812;8.562;2024-03-02T05:12:19;99364.47;;;1.84;100.00
62333;BME280;48624;49.812;8.562;2024-03-02T05:15:03;99360.06;;;1.84;100.00
62333;BME280;48624;49.812;8.562;2024-03-02T05:17:29;99365.44;;;1.63;100.00
62333;BME280;48624;49.812;8.562;2024-03-02T05:19:54;99361.50;;;1.55;100.00
62333;BME280;48624;49.812;8.562;2024-03-02T05:22:19;99369.47;;;1.51;100.00
62333;BME280;48624;49.812;8.562;2024-03-02T05:24:44;99370.50;;;1.49;100.00
62333;BME280;48624;49.812;8.562;2024-03-02T05:27:10;99368.69;;;1.49;100.00
62333;BME280;48624;49.812;8.562;2024-03-02T05:29:35;99368.03;;;1.63;100.00
62333;BME280;48624;49.812;8.562;2024-03-02T05:32:00;99367.50;;;1.57;100.00
62333;BME280;48624;49.812;8.562;2024-03-02T05:34:26;99360.16;;;1.46;100.00
62333;BME280;48624;49.812;8.562;2024-03-02T05:36:51;99367.44;;;1.39;100.00
62333;BME280;48624;49.812;8.562;2024-03-02T05:39:16;99378.09;;;1.34;100.00
62333;BME280;48624;49.812;8.562;2024-03-02T05:41:41;99379.63;;;1.58;100.00
62333;BME280;48624;49.812;8.562;2024-03-02T05:44:07;99382.41;;;1.55;100.00
62333;BME280;48624;49.812;8.562;2024-03-02T05:46:32;99388.34;;;1.20;100.00
62333;BME280;48624;49.812;8.562;2024-03-02T05:49:01;99382.44;;;1.16;100.00
62333;BME280;48624;49.812;8.562;2024-03-02T05:51:27;99391.50;;;1.46;100.00
62333;BME280;48624;49.812;8.562;2024-03-02T05:53:52;99388.41;;;1.18;100.00
62333;BME280;48624;49.812;8.562;2024-03-02T05:56:17;99389.31;;;1.36;100.00
62333;BME280;48624;49.812;8.562;2024-03-02T05:58:43;99389.09;;;1.41;100.00
62333;BME280;48624;49.812;8.562;2024-03-02T06:01:18;99387.63;;;1.55;100.00
62333;BME280;48624;49.812;8.562;2024-03-02T06:03:43;99395.66;;;1.50;100.00
62333;BME280;48624;49.812;8.562;2024-03-02T06:06:09;99394.31;;;1.60;100.00
62333;BME280;48624;49.812;8.562;2024-03-02T06:08:35;99396.91;;;1.23;100.00
62333;BME280;48624;49.812;8.562;2024-03-02T06:11:00;99402.28;;;1.57;100.00
62333;BME280;48624;49.812;8.562;2024-03-02T06:13:25;99398.66;;;1.60;100.00
62333;BME280;48624;49.812;8.562;2024-03-02T06:15:51;99406.22;;;1.66;100.00
62333;BME280;48624;49.812;8.562;2024-03-02T06:18:17;99408.31;;;1.77;100.00
62333;BME280;48624;49.812;8.562;2024-03-02T06:20:42;99408.06;;;1.64;100.00
62333;BME280;48624;49.812;8.562;2024-03-02T06:23:07;99407.31;;;1.79;100.00
62333;BME280;48624;49.812;8.562;2024-03-02T06:25:33;99416.38;;;1.72;100.00
62333;BME280;48624;49.812;8.562;2024-03-02T06:27:58;99420.63;;;1.56;100.00
62333;BME280;48624;49.812;8.562;2024-03-02T06:30:24;99419.50;;;1.61;100.00
62333;BME280;48624;49.812;8.562;2024-03-02T06:32:49;99424.94;;;1.57;100.00
62333;BME280;48624;49.812;8.562;2024-03-02T06:35:14;99417.97;;;1.75;100.00
62333;BME280;48624;49.812;8.562;2024-03-02T06:37:40;99415.31;;;1.76;100.00
62333;BME280;48624;49.812;8.562;2024-03-02T06:40:06;99409.78;;;1.83;100.00
62333;BME280;48624;49.812;8.562;2024-03-02T06:42:33;99417.63;;;1.83;100.00
62333;BME280;48624;49.812;8.562;2024-03-02T06:44:59;99418.00;;;1.92;100.00
62333;BME280;48624;49.812;8.562;2024-03-02T06:47:24;99423.47;;;1.88;100.00
62333;BME280;48624;49.812;8.562;2024-03-02T06:49:49;99424.53;;;1.84;100.00
62333;BME280;48624;49.812;8.562;2024-03-02T06:52:17;99424.13;;;1.74;100.00
62333;BME280;48624;49.812;8.562;2024-03-02T06:54:42;99428.22;;;1.97;100.00
62333;BME280;48624;49.812;8.562;2024-03-02T06:57:08;99424.09;;;1.93;100.00
62333;BME280;48624;49.812;8.562;2024-03-02T06:59:33;99413.94;;;1.87;100.00
62333;BME280;48624;49.812;8.562;2024-03-02T07:01:59;99420.50;;;1.96;100.00
62333;BME280;48624;49.812;8.562;2024-03-02T07:04:24;99417.50;;;2.03;100.00
62333;BME280;48624;49.812;8.562;2024-03-02T07:06:49;99427.78;;;2.06;100.00
62333;BME280;48624;49.812;8.562;2024-03-02T07:09:16;99429.03;;;2.17;100.00
62333;BME280;48624;49.812;8.562;2024-03-02T07:11:41;99429.44;;;2.27;100.00
62333;BME280;48624;49.812;8.562;2024-03-02T07:14:07;99428.44;;;2.29;100.00
62333;BME280;48624;49.812;8.562;2024-03-02T07:16:32;99441.19;;;2.35;100.00
62333;BME280;48624;49.812;8.562;2024-03-02T07:18:59;99443.72;;;2.37;100.00
62333;BME280;48624;49.812;8.562;2024-03-02T07:21:26;99445.34;;;2.40;100.00
62333;BME280;48624;49.812;8.562;2024-03-02T07:23:52;99435.81;;;2.39;100.00
62333;BME280;48624;49.812;8.562;2024-03-02T07:26:17;99444.81;;;2.33;100.00
62333;BME280;48624;49.812;8.562;2024-03-02T07:28:44;99447.31;;;2.34;100.00
62333;BME280;48624;49.812;8.562;2024-03-02T07:31:10;99446.63;;;2.31;100.00
62333;BME280;48624;49.812;8.562;2024-03-02T07:33:35;99445.63;;;2.33;100.00
62333;BME280;48624;49.812;8.562;2024-03-02T07:36:01;99447.03;;;2.23;100.00
62333;BME280;48624;49.812;8.562;2024-03-02T07:38:27;99452.25;;;2.41;100.00
62333;BME280;48624;49.812;8.562;2024-03-02T07:40:55;99448.66;;;2.61;100.00
62333;BME280;48624;49.812;8.562;2024-03-02T07:43:21;99455.84;;;2.73;100.00
62333;BME280;48624;49.812;8.562;2024-03-02T07:45:46;99453.06;;;2.94;100.00
62333;BME280;48624;49.812;8.562;2024-03-02T07:48:12;99449.28;;;3.16;100.00
62333;BME280;48624;49.812;8.562;2024-03-02T07:50:37;99459.28;;;3.41;100.00
62333;BME280;48624;49.812;8.562;2024-03-02T07:53:04;99468.00;;;3.74;100.00
62333;BME280;48624;49.812;8.562;2024-03-02T07:55:30;99466.06;;;3.94;100.00
62333;BME280;48624;49.812;8.562;2024-03-02T07:57:56;99470.16;;;4.14;100.00
62333;BME280;48624;49.812;8.562;2024-03-02T08:00:22;99478.84;;;4.30;100.00
62333;BME280;48624;49.812;8.562;2024-03-02T08:02:48;99468.72;;;4.55;100.00
62333;BME280;48624;49.812;8.562;2024-03-02T08:05:16;99469.31;;;4.75;100.00
62333;BME280;48624;49.812;8.562;2024-03-02T08:07:43;99464.13;;;4.73;100.00
62333;BME280;48624;49.812;8.562;2024-03-02T08:10:09;99476.16;;;4.92;100.00
62333;BME280;48624;49.812;8.562;2024-03-02T08:12:34;99474.59;;;5.04;100.00
62333;BME280;48624;49.812;8.562;2024-03-02T08:14:59;99467.00;;;4.84;100.00
62333;BME280;48624;49.812;8.562;2024-03-02T08:17:25;99477.22;;;5.04;100.00
62333;BME280;48624;49.812;8.562;2024-03-02T08:19:50;99477.88;;;5.22;100.00
62333;BME280;48624;49.812;8.562;2024-03-02T08:22:17;99467.28;;;5.38;100.00
62333;BME280;48624;49.812;8.562;2024-03-02T08:24:42;99480.28;;;5.54;100.00
62333;BME280;48624;49.812;8.562;2024-03-02T08:27:07;99483.75;;;5.69;100.00
62333;BME280;48624;49.812;8.562;2024-03-02T08:29:34;99470.88;;;5.79;100.00
62333;BME280;48624;49.812;8.562;2024-03-02T08:32:00;99476.94;;;5.94;100.00
62333;BME280;48624;49.812;8.562;2024-03-02T08:34:25;99472.59;;;6.07;100.00
62333;BME280;48624;49.812;8.562;2024-03-02T08:36:50;99478.84;;;6.19;100.00
62333;BME280;48624;49.812;8.562;2024-03-02T08:39:16;99470.78;;;6.35;100.00
62333;BME280;48624;49.812;8.562;2024-03-02T08:41:44;99465.75;;;6.58;100.00
62333;BME280;48624;49.812;8.562;2024-03-02T08:44:09;99466.19;;;6.78;100.00
62333;BME280;48624;49.812;8.562;2024-03-02T08:46:35;99473.69;;;6.97;100.00
62333;BME280;48624;49.812;8.562;2024-03-02T08:49:01;99472.19;;;7.19;100.00
62333;BME280;48624;49.812;8.562;2024-03-02T08:51:26;99471.25;;;7.20;98.28
62333;BME280;48624;49.812;8.562;2024-03-02T08:53:51;99470.50;;;7.44;98.02
62333;BME280;48624;49.812;8.562;2024-03-02T08:56:17;99481.06;;;7.81;99.31
62333;BME280;48624;49.812;8.562;2024-03-02T08:58:43;99472.75;;;7.74;97.08
62333;BME280;48624;49.812;8.562;2024-03-02T09:01:09;99478.69;;;7.65;93.74
62333;BME280;48624;49.812;8.562;2024-03-02T09:03:34;99471.56;;;8.03;95.34
62333;BME280;48624;49.812;8.562;2024-03-02T09:06:00;99468.25;;;8.12;94.96
62333;BME280;48624;49.812;8.562;2024-03-02T09:08:26;99473.25;;;8.28;94.91
62333;BME280;48624;49.812;8.562;2024-03-02T09:10:51;99470.25;;;8.33;93.26
62333;BME280;48624;49.812;8.562;2024-03-02T09:13:17;99471.44;;;8.53;93.05
62333;BME280;48624;49.812;8.562;2024-03-02T09:15:42;99478.41;;;8.54;91.89
62333;BME280;48624;49.812;8.562;2024-03-02T09:18:08;99482.31;;;8.73;93.05
62333;BME280;48624;49.812;8.562;2024-03-02T09:20:33;99475.94;;;8.64;89.02
62333;BME280;48624;49.812;8.562;2024-03-02T09:22:58;99467.94;;;9.11;94.04
62333;BME280;48624;49.812;8.562;2024-03-02T09:25:24;99464.09;;;9.04;91.96
62333;BME280;48624;49.812;8.562;2024-03-02T09:27:50;99458.34;;;9.33;93.51
62333;BME280;48624;49.812;8.562;2024-03-02T09:30:16;99452.94;;;9.23;91.02
62333;BME280;48624;49.812;8.562;2024-03-02T09:32:41;99457.88;;;9.16;88.05
62333;BME280;48624;49.812;8.562;2024-03-02T09:35:07;99452.69;;;9.49;89.38
62333;BME280;48624;49.812;8.562;2024-03-02T09:37:32;99449.41;;;9.68;89.08
62333;BME280;48624;49.812;8.562;2024-03-02T09:39:57;99458.50;;;9.87;88.40
62333;BME280;48624;49.812;8.562;2024-03-02T09:42:24;99458.97;;;9.92;86.76
62333;BME280;48624;49.812;8.562;2024-03-02T09:44:49;99455.47;;;9.92;84.78
62333;BME280;48624;49.812;8.562;2024-03-02T09:47:14;99450.31;;;10.23;85.79
62333;BME280;48624;49.812;8.562;2024-03-02T09:49:40;99447.63;;;10.46;84.78
62333;BME280;48624;49.812;8.562;2024-03-02T09:52:05;99442.47;;;10.33;83.39
62333;BME280;48624;49.812;8.562;2024-03-02T09:54:32;99433.53;;;10.66;81.91
62333;BME280;48624;49.812;8.562;2024-03-02T09:56:57;99443.75;;;10.38;79.39
62333;BME280;48624;49.812;8.562;2024-03-02T09:59:23;99438.13;;;10.64;82.21
62333;BME280;48624;49.812;8.562;2024-03-02T10:01:56;99440.97;;;10.73;81.00
62333;BME280;48624;49.812;8.562;2024-03-02T10:04:22;99442.56;;;11.16;80.78
62333;BME280;48624;49.812;8.562;2024-03-02T10:06:48;99450.47;;;11.47;80.02
62333;BME280;48624;49.812;8.562;2024-03-02T10:09:26;99433.47;;;11.50;73.52
62333;BME280;48624;49.812;8.562;2024-03-02T10:11:52;99436.00;;;11.51;72.68
62333;BME280;48624;49.812;8.562;2024-03-02T10:14:17;99441.19;;;11.63;73.19
62333;BME280;48624;49.812;8.562;2024-03-02T10:16:44;99434.31;;;11.50;71.83
62333;BME280;48624;49.812;8.562;2024-03-02T10:19:23;99433.06;;;11.55;67.70
62333;BME280;48624;49.812;8.562;2024-03-02T10:21:58;99424.91;;;11.97;65.21
62333;BME280;48624;49.812;8.562;2024-03-02T10:24:24;99431.47;;;12.13;69.50
62333;BME280;48624;49.812;8.562;2024-03-02T10:26:50;99419.19;;;12.21;66.13
62333;BME280;48624;49.812;8.562;2024-03-02T10:29:16;99415.72;;;12.11;68.46
62333;BME280;48624;49.812;8.562;2024-03-02T10:31:44;99425.34;;;12.32;67.46
62333;BME280;48624;49.812;8.562;2024-03-02T10:34:11;99428.25;;;12.58;65.88
62333;BME280;48624;49.812;8.562;2024-03-02T10:36:41;99417.97;;;12.83;64.97
62333;BME280;48624;49.812;8.562;2024-03-02T10:39:08;99417.38;;;13.27;65.47
62333;BME280;48624;49.812;8.562;2024-03-02T10:41:35;99411.75;;;13.30;64.26
62333;BME280;48624;49.812;8.562;2024-03-02T10:44:08;99408.53;;;13.65;62.19
62333;BME280;48624;49.812;8.562;2024-03-02T10:46:36;99409.06;;;13.86;61.53
62333;BME280;48624;49.812;8.562;2024-03-02T10:49:02;99410.00;;;13.49;60.18
62333;BME280;48624;49.812;8.562;2024-03-02T10:51:30;99404.28;;;13.90;61.34
62333;BME280;48624;49.812;8.562;2024-03-02T10:53:59;99394.94;;;13.86;60.98
62333;BME280;48624;49.812;8.562;2024-03-02T10:56:34;99389.34;;;14.34;57.91
62333;BME280;48624;49.812;8.562;2024-03-02T10:59:06;99383.22;;;14.86;57.19
62333;BME280;48624;49.812;8.562;2024-03-02T11:01:38;99382.25;;;14.95;56.32
62333;BME280;48624;49.812;8.562;2024-03-02T11:04:04;99391.41;;;15.28;56.18
62333;BME280;48624;49.812;8.562;2024-03-02T11:09:06;99383.50;;;15.09;52.16
62333;BME280;48624;49.812;8.562;2024-03-02T11:11:36;99381.56;;;15.36;54.41
62333;BME280;48624;49.812;8.562;2024-03-02T11:14:04;99381.94;;;15.42;53.59
62333;BME280;48624;49.812;8.562;2024-03-02T11:16:37;99373.94;;;15.50;54.16
62333;BME280;48624;49.812;8.562;2024-03-02T11:19:14;99383.63;;;15.51;53.96
62333;BME280;48624;49.812;8.562;2024-03-02T11:21:40;99383.81;;;15.58;55.03
62333;BME280;48624;49.812;8.562;2024-03-02T11:26:47;99381.53;;;15.79;54.40
62333;BME280;48624;49.812;8.562;2024-03-02T11:32:02;99369.84;;;15.80;53.95
62333;BME280;48624;49.812;8.562;2024-03-02T11:34:35;99366.47;;;15.62;53.60
62333;BME280;48624;49.812;8.562;2024-03-02T11:37:01;99363.94;;;15.52;54.67
62333;BME280;48624;49.812;8.562;2024-03-02T11:39:27;99357.25;;;14.96;54.18
62333;BME280;48624;49.812;8.562;2024-03-02T11:41:53;99353.69;;;15.31;55.62
62333;BME280;48624;49.812;8.562;2024-03-02T11:44:19;99347.38;;;15.32;55.37
62333;BME280;48624;49.812;8.562;2024-03-02T11:46:58;99344.59;;;15.50;55.55
62333;BME280;48624;49.812;8.562;2024-03-02T11:52:12;99334.78;;;15.75;54.81
62333;BME280;48624;49.812;8.562;2024-03-02T11:54:40;99329.13;;;16.28;53.63
62333;BME280;48624;49.812;8.562;2024-03-02T11:57:11;99326.63;;;16.18;53.64
62333;BME280;48624;49.812;8.562;2024-03-02T11:59:37;99327.44;;;16.35;54.51
62333;BME280;48624;49.812;8.562;2024-03-02T12:02:02;99313.09;;;16.20;54.67
62333;BME280;48624;49.812;8.562;2024-03-02T12:04:28;99315.16;;;16.66;53.88
62333;BME280;48624;49.812;8.562;2024-03-02T12:06:55;99308.88;;;16.90;52.66
62333;BME280;48624;49.812;8.562;2024-03-02T12:09:21;99298.69;;;16.94;52.45
62333;BME280;48624;49.812;8.562;2024-03-02T12:11:47;99299.06;;;17.23;49.62
62333;BME280;48624;49.812;8.562;2024-03-02T12:14:12;99288.41;;;16.74;51.75
62333;BME280;48624;49.812;8.562;2024-03-02T12:16:44;99284.56;;;17.17;50.32
62333;BME280;48624;49.812;8.562;2024-03-02T12:19:09;99279.81;;;17.51;49.84
62333;BME280;48624;49.812;8.562;2024-03-02T12:21:35;99287.16;;;17.95;48.71
62333;BME280;48624;49.812;8.562;2024-03-02T12:24:01;99291.34;;;17.51;48.49
62333;BME280;48624;49.812;8.562;2024-03-02T12:26:27;99292.34;;;17.97;48.55
62333;BME280;48624;49.812;8.562;2024-03-02T12:28:53;99287.97;;;18.04;49.17
62333;BME280;48624;49.812;8.562;2024-03-02T12:31:19;99285.19;;;18.12;47.95
62333;BME280;48624;49.812;8.562;2024-03-02T12:33:44;99276.72;;;18.54;45.88
62333;BME280;48624;49.812;8.562;2024-03-02T12:36:10;99269.53;;;17.78;43.67
62333;BME280;48624;49.812;8.562;2024-03-02T12:38:37;99271.69;;;18.81;45.54
62333;BME280;48624;49.812;8.562;2024-03-02T12:41:02;99271.50;;;18.97;45.73
62333;BME280;48624;49.812;8.562;2024-03-02T12:43:31;99270.00;;;19.10;44.13
62333;BME280;48624;49.812;8.562;2024-03-02T12:45:57;99265.28;;;19.34;44.48
62333;BME280;48624;49.812;8.562;2024-03-02T12:48:23;99271.03;;;19.52;42.54
62333;BME280;48624;49.812;8.562;2024-03-02T12:50:49;99269.50;;;19.87;42.85
62333;BME280;48624;49.812;8.562;2024-03-02T12:53:15;99255.28;;;19.93;41.48
62333;BME280;48624;49.812;8.562;2024-03-02T12:55:43;99258.84;;;19.72;40.34
62333;BME280;48624;49.812;8.562;2024-03-02T12:58:19;99250.63;;;20.37;38.55
62333;BME280;48624;49.812;8.562;2024-03-02T13:00:46;99250.13;;;20.62;38.93
62333;BME280;48624;49.812;8.562;2024-03-02T13:03:11;99248.09;;;20.29;38.35
62333;BME280;48624;49.812;8.562;2024-03-02T13:05:37;99245.63;;;20.69;39.19